Bayway, New Jersey
Current Conditions -  °F | °C
As of 11:15 PM on Wednesday 22 Oct 2014 (Local Time) from KLDJ Reporting Station
Moderate Rain Moderate Rain  
Wind Chill: 55°   Ceiling: 2700
Heat Index: 55°   Visibility: 4mi
Dew Point: 51°   Wind: 12mph
Humidity: 87%   Direction: 20°NNE
Pressure: 29.78"   Gusts: 18mph
Location:  40.6531°N, 74.2169°W
Report Text: KLDJ 230315Z AUTO 02010G16KT 4SM RA SCT021 BKN027 OVC032 13/11 A2978 RMK AO2 P0006 T01280107
Loading
Personal Weather Stations






























Interactive Weather Map
Tropical Storm Tracking
New forecast layout! Learn more

10-Day Weather Forecast

Advertisements
Track Severe Weather on mobile